West Berlin, NJ (08091)

12:51 PM EDT on July 06, 2015 (GMT -0400)
Pinecrest | | Change Station
CLOSE
Current Station
Personal Weather Station
Location: West Berlin, NJ
Elevation: 167 ft
Nearby Weather Stations

Elev 167 ft 39.81 °N, 74.94 °W | Updated 8 seconds ago

Overcast
Overcast
80.9 °F
Feels Like 85 °F
N
3.2
Wind Variable Wind from SSW
Gusts 7.6 mph

Today
High -- | Low -- °F
--% Chance of Precip.
Yesterday
High -- | Low -- °F
Precip. -- in
5:37 AM 8:30 PM
Waning Gibbous, 74% visible
Pressure 30.14 in
Visibility 10.0 miles
Clouds Few 2200 ft
Mostly Cloudy 5000 ft
Heat Index 85 °F
Dew Point 71 °F
Humidity 71%
Rainfall 0.00 in
Snow Depth Not available.
UV 6 out of 12
Pollen 2.70 out of 12
Air Quality Not available.
Flu Activity Not available.
SPECI KVAY 061644Z AUTO 11005KT 10SM FEW022 BKN050 27/23 A3014 RMK AO2 RAB1559E16 P0012 T02720233

More Conditions Fewer Conditions

Pressure 30.14 in
Visibility 10.0 miles
Clouds Few 2200 ft
Mostly Cloudy 5000 ft
Heat Index 85 °F
Dew Point 71 °F
Humidity 71%
Rainfall 0.00 in
Snow Depth Not available.
UV 6 out of 12
Pollen 2.70 out of 12
Air Quality Not available.
Flu Activity Not available.
SPECI KVAY 061644Z AUTO 11005KT 10SM FEW022 BKN050 27/23 A3014 RMK AO2 RAB1559E16 P0012 T02720233

More Conditions Fewer Conditions

Nowcast | as of 12:14 PM EDT on July 6, 2015

A few isolated showers will develop into early this afternoon across portions of southern to central New Jersey and into eastern portions of Pennsylvania, including around the Philadelphia metropolitan area. These showers may contain brief downpours which will reduce visibilities and cause ponding of water along area roadways.

×

10-Day Weather Forecast

×

Almanac

Astronomy

Jul. 06, 2015 Rise Set
Actual Time
Civil Twilight
Nautical Twilight
Astronomical Twilight
Moon
Length of Visible Light
Length of Day
Tomorrow will be .
, % of the Moon is Illuminated

Today's Extremes

State Highs State Lows

Community

WunderPhotos

Upload Photos

1,835,599 photos uploaded!

WunderBlogs® & News

Nearby

Air Quality

  Air Quality AQ Index Pollutant
Not available.

Snow Depth

Station Depth Elevation

Earthquake Activity

City Distance Mag. Time & Date
Minimum magnitude displayed is 2.5.

Coastal Water Temperatures

Place Temperature

Stations

Nearby Weather Stations

Station Location Temp. Windchill Dew Point Humidity Wind Precip. Elev Updated Type